sensor_id;sensor_type;location;lat;lon;timestamp;pressure;altitude;pressure_sealevel;temperature;humidity
59063;BME280;44851;45.648;9.004;2023-01-24T00:00:54;99934.03;;;3.85;57.54
59063;BME280;44851;45.648;9.004;2023-01-24T00:03:20;99933.56;;;3.94;58.05
59063;BME280;44851;45.648;9.004;2023-01-24T00:05:46;99926.13;;;3.88;58.18
59063;BME280;44851;45.648;9.004;2023-01-24T00:08:14;99928.88;;;3.85;58.22
59063;BME280;44851;45.648;9.004;2023-01-24T00:10:40;99932.97;;;3.89;58.48
59063;BME280;44851;45.648;9.004;2023-01-24T00:13:06;99926.06;;;3.90;57.66
59063;BME280;44851;45.648;9.004;2023-01-24T00:15:32;99929.63;;;3.87;57.91
59063;BME280;44851;45.648;9.004;2023-01-24T00:17:58;99929.19;;;3.96;57.93
59063;BME280;44851;45.648;9.004;2023-01-24T00:20:23;99928.88;;;3.85;57.91
59063;BME280;44851;45.648;9.004;2023-01-24T00:22:49;99936.13;;;3.94;57.80
59063;BME280;44851;45.648;9.004;2023-01-24T00:25:14;99938.06;;;3.91;58.23
59063;BME280;44851;45.648;9.004;2023-01-24T00:27:40;99934.63;;;3.90;58.44
59063;BME280;44851;45.648;9.004;2023-01-24T00:30:05;99938.19;;;4.05;57.11
59063;BME280;44851;45.648;9.004;2023-01-24T00:32:32;99939.78;;;3.90;58.13
59063;BME280;44851;45.648;9.004;2023-01-24T00:34:57;99932.97;;;4.06;57.23
59063;BME280;44851;45.648;9.004;2023-01-24T00:37:23;99932.50;;;3.98;57.29
59063;BME280;44851;45.648;9.004;2023-01-24T00:39:48;99934.41;;;3.95;57.21
59063;BME280;44851;45.648;9.004;2023-01-24T00:42:13;99936.00;;;3.97;56.60
59063;BME280;44851;45.648;9.004;2023-01-24T00:44:39;99936.00;;;3.97;57.06
59063;BME280;44851;45.648;9.004;2023-01-24T00:47:04;99939.63;;;3.93;57.02
59063;BME280;44851;45.648;9.004;2023-01-24T00:49:29;99943.13;;;3.92;57.01
59063;BME280;44851;45.648;9.004;2023-01-24T00:51:55;99952.06;;;3.85;57.47
59063;BME280;44851;45.648;9.004;2023-01-24T00:54:20;99949.41;;;3.87;57.13
59063;BME280;44851;45.648;9.004;2023-01-24T00:56:46;99953.13;;;3.81;57.03
59063;BME280;44851;45.648;9.004;2023-01-24T00:59:11;99953.88;;;3.83;57.22
59063;BME280;44851;45.648;9.004;2023-01-24T01:01:37;99947.66;;;3.87;57.22
59063;BME280;44851;45.648;9.004;2023-01-24T01:04:02;99948.75;;;4.00;56.73
59063;BME280;44851;45.648;9.004;2023-01-24T01:06:28;99950.94;;;3.91;57.03
59063;BME280;44851;45.648;9.004;2023-01-24T01:08:53;99963.97;;;3.88;56.92
59063;BME280;44851;45.648;9.004;2023-01-24T01:11:19;99963.34;;;3.83;57.87
59063;BME280;44851;45.648;9.004;2023-01-24T01:13:45;99972.28;;;3.75;58.21
59063;BME280;44851;45.648;9.004;2023-01-24T01:16:16;99972.84;;;3.82;58.01
59063;BME280;44851;45.648;9.004;2023-01-24T01:18:42;99972.84;;;3.82;58.35
59063;BME280;44851;45.648;9.004;2023-01-24T01:21:11;99972.28;;;3.75;57.75
59063;BME280;44851;45.648;9.004;2023-01-24T01:23:37;99985.38;;;3.90;57.87
59063;BME280;44851;45.648;9.004;2023-01-24T01:26:04;99984.56;;;3.89;57.61
59063;BME280;44851;45.648;9.004;2023-01-24T01:28:30;99991.38;;;3.90;57.54
59063;BME280;44851;45.648;9.004;2023-01-24T01:30:56;100001.69;;;3.90;57.41
59063;BME280;44851;45.648;9.004;2023-01-24T01:33:22;100004.81;;;3.97;57.71
59063;BME280;44851;45.648;9.004;2023-01-24T01:35:49;100001.13;;;3.84;57.95
59063;BME280;44851;45.648;9.004;2023-01-24T01:38:15;100002.44;;;3.92;58.35
59063;BME280;44851;45.648;9.004;2023-01-24T01:40:41;99997.88;;;3.80;58.95
59063;BME280;44851;45.648;9.004;2023-01-24T01:43:16;100002.75;;;4.03;57.57
59063;BME280;44851;45.648;9.004;2023-01-24T01:45:47;100006.84;;;3.90;58.54
59063;BME280;44851;45.648;9.004;2023-01-24T01:51:02;100001.84;;;4.04;57.85
59063;BME280;44851;45.648;9.004;2023-01-24T01:53:32;100006.56;;;3.96;58.11
59063;BME280;44851;45.648;9.004;2023-01-24T01:56:07;100011.94;;;4.09;57.84
59063;BME280;44851;45.648;9.004;2023-01-24T01:58:35;100009.84;;;4.00;58.32
59063;BME280;44851;45.648;9.004;2023-01-24T02:01:02;100017.19;;;4.07;57.84
59063;BME280;44851;45.648;9.004;2023-01-24T02:03:34;100018.09;;;4.06;57.17
59063;BME280;44851;45.648;9.004;2023-01-24T02:06:22;100017.59;;;4.17;55.75
59063;BME280;44851;45.648;9.004;2023-01-24T02:08:51;100020.22;;;4.16;57.48
59063;BME280;44851;45.648;9.004;2023-01-24T02:11:18;100021.34;;;4.10;57.53
59063;BME280;44851;45.648;9.004;2023-01-24T02:14:02;100021.59;;;4.05;57.51
59063;BME280;44851;45.648;9.004;2023-01-24T02:16:47;100016.19;;;4.10;57.14
59063;BME280;44851;45.648;9.004;2023-01-24T02:20:04;100026.16;;;4.18;56.65
59063;BME280;44851;45.648;9.004;2023-01-24T02:22:37;100025.56;;;4.13;55.88
59063;BME280;44851;45.648;9.004;2023-01-24T02:28:02;100017.50;;;4.19;57.12
59063;BME280;44851;45.648;9.004;2023-01-24T02:30:28;100019.03;;;4.23;56.53
59063;BME280;44851;45.648;9.004;2023-01-24T02:32:53;100009.63;;;4.22;56.91
59063;BME280;44851;45.648;9.004;2023-01-24T02:35:27;100015.94;;;4.16;56.45
59063;BME280;44851;45.648;9.004;2023-01-24T02:37:54;100019.78;;;4.25;56.43
59063;BME280;44851;45.648;9.004;2023-01-24T02:40:22;100021.25;;;4.30;56.43
59063;BME280;44851;45.648;9.004;2023-01-24T02:42:48;100025.25;;;4.19;57.51
59063;BME280;44851;45.648;9.004;2023-01-24T02:45:33;100030.22;;;4.04;56.58
59063;BME280;44851;45.648;9.004;2023-01-24T02:47:59;100041.47;;;4.21;57.10
59063;BME280;44851;45.648;9.004;2023-01-24T02:50:27;100043.44;;;4.16;56.98
59063;BME280;44851;45.648;9.004;2023-01-24T02:52:53;100037.25;;;4.20;57.68
59063;BME280;44851;45.648;9.004;2023-01-24T02:55:37;100035.13;;;4.11;57.86
59063;BME280;44851;45.648;9.004;2023-01-24T02:58:32;100043.00;;;4.07;57.04
59063;BME280;44851;45.648;9.004;2023-01-24T03:00:57;100044.38;;;4.15;57.46
59063;BME280;44851;45.648;9.004;2023-01-24T03:03:23;100049.47;;;4.16;57.67
59063;BME280;44851;45.648;9.004;2023-01-24T03:05:48;100051.78;;;4.03;58.18
59063;BME280;44851;45.648;9.004;2023-01-24T03:08:28;100046.03;;;4.16;57.69
59063;BME280;44851;45.648;9.004;2023-01-24T03:10:54;100046.50;;;4.24;57.69
59063;BME280;44851;45.648;9.004;2023-01-24T03:13:20;100042.09;;;4.26;57.64
59063;BME280;44851;45.648;9.004;2023-01-24T03:16:05;100046.91;;;4.33;56.17
59063;BME280;44851;45.648;9.004;2023-01-24T03:18:50;100052.50;;;4.24;56.94
59063;BME280;44851;45.648;9.004;2023-01-24T03:21:35;100052.25;;;4.12;57.44
59063;BME280;44851;45.648;9.004;2023-01-24T03:24:19;100056.69;;;4.27;56.09
59063;BME280;44851;45.648;9.004;2023-01-24T03:27:03;100055.16;;;4.23;58.54
59063;BME280;44851;45.648;9.004;2023-01-24T03:29:47;100060.91;;;4.11;59.06
59063;BME280;44851;45.648;9.004;2023-01-24T03:32:31;100053.34;;;4.25;57.69
59063;BME280;44851;45.648;9.004;2023-01-24T03:35:15;100050.13;;;4.20;58.37
59063;BME280;44851;45.648;9.004;2023-01-24T03:37:41;100059.91;;;4.32;57.43
59063;BME280;44851;45.648;9.004;2023-01-24T03:40:25;100062.00;;;4.24;57.02
59063;BME280;44851;45.648;9.004;2023-01-24T03:42:50;100064.94;;;4.16;57.29
59063;BME280;44851;45.648;9.004;2023-01-24T03:45:32;100073.81;;;4.11;56.61
59063;BME280;44851;45.648;9.004;2023-01-24T03:48:01;100072.91;;;4.12;57.90
59063;BME280;44851;45.648;9.004;2023-01-24T03:50:32;100078.81;;;4.14;57.22
59063;BME280;44851;45.648;9.004;2023-01-24T03:53:18;100083.16;;;4.13;57.14
59063;BME280;44851;45.648;9.004;2023-01-24T03:55:44;100080.97;;;4.23;57.02
59063;BME280;44851;45.648;9.004;2023-01-24T03:58:10;100082.22;;;4.33;56.41
59063;BME280;44851;45.648;9.004;2023-01-24T04:00:37;100089.16;;;4.31;56.76
59063;BME280;44851;45.648;9.004;2023-01-24T04:03:03;100087.38;;;4.33;56.54
59063;BME280;44851;45.648;9.004;2023-01-24T04:05:29;100086.13;;;4.23;57.39
59063;BME280;44851;45.648;9.004;2023-01-24T04:07:55;100090.28;;;4.25;57.44
59063;BME280;44851;45.648;9.004;2023-01-24T04:10:21;100094.16;;;4.17;57.28
59063;BME280;44851;45.648;9.004;2023-01-24T04:12:47;100095.97;;;4.15;57.36
59063;BME280;44851;45.648;9.004;2023-01-24T04:15:32;100101.91;;;4.17;56.87
59063;BME280;44851;45.648;9.004;2023-01-24T04:18:00;100101.63;;;4.23;57.93
59063;BME280;44851;45.648;9.004;2023-01-24T04:20:28;100095.94;;;4.33;57.69
59063;BME280;44851;45.648;9.004;2023-01-24T04:22:54;100104.22;;;4.40;57.55
59063;BME280;44851;45.648;9.004;2023-01-24T04:25:20;100103.47;;;4.38;57.16
59063;BME280;44851;45.648;9.004;2023-01-24T04:27:46;100098.53;;;4.33;57.66
59063;BME280;44851;45.648;9.004;2023-01-24T04:30:13;100104.75;;;4.29;57.94
59063;BME280;44851;45.648;9.004;2023-01-24T04:32:39;100106.47;;;4.29;58.60
59063;BME280;44851;45.648;9.004;2023-01-24T04:35:05;100097.41;;;4.39;57.89
59063;BME280;44851;45.648;9.004;2023-01-24T04:37:31;100114.97;;;4.31;57.77
59063;BME280;44851;45.648;9.004;2023-01-24T04:39:57;100106.47;;;4.29;58.32
59063;BME280;44851;45.648;9.004;2023-01-24T04:42:22;100111.66;;;4.29;58.74
59063;BME280;44851;45.648;9.004;2023-01-24T04:44:48;100104.69;;;4.12;59.52
59063;BME280;44851;45.648;9.004;2023-01-24T04:47:13;100115.28;;;4.25;59.96
59063;BME280;44851;45.648;9.004;2023-01-24T04:49:39;100108.81;;;4.16;61.34
59063;BME280;44851;45.648;9.004;2023-01-24T04:52:09;100106.44;;;4.12;61.37
59063;BME280;44851;45.648;9.004;2023-01-24T04:54:35;100109.84;;;4.12;60.74
59063;BME280;44851;45.648;9.004;2023-01-24T04:57:01;100112.03;;;4.21;59.29
59063;BME280;44851;45.648;9.004;2023-01-24T04:59:26;100116.19;;;4.24;59.67
59063;BME280;44851;45.648;9.004;2023-01-24T05:01:52;100116.69;;;4.32;59.17
59063;BME280;44851;45.648;9.004;2023-01-24T05:04:17;100111.22;;;4.38;58.33
59063;BME280;44851;45.648;9.004;2023-01-24T05:06:42;100112.47;;;4.48;58.45
59063;BME280;44851;45.648;9.004;2023-01-24T05:09:08;100114.56;;;4.40;57.84
59063;BME280;44851;45.648;9.004;2023-01-24T05:11:33;100113.06;;;4.53;57.93
59063;BME280;44851;45.648;9.004;2023-01-24T05:14:00;100121.25;;;4.44;58.56
59063;BME280;44851;45.648;9.004;2023-01-24T05:16:25;100115.91;;;4.47;57.92
59063;BME280;44851;45.648;9.004;2023-01-24T05:18:51;100115.88;;;4.49;57.63
59063;BME280;44851;45.648;9.004;2023-01-24T05:21:17;100119.41;;;4.46;58.26
59063;BME280;44851;45.648;9.004;2023-01-24T05:23:48;100114.13;;;4.49;57.79
59063;BME280;44851;45.648;9.004;2023-01-24T05:26:13;100121.16;;;4.46;57.92
59063;BME280;44851;45.648;9.004;2023-01-24T05:28:39;100124.97;;;4.39;58.52
59063;BME280;44851;45.648;9.004;2023-01-24T05:31:05;100126.53;;;4.41;58.30
59063;BME280;44851;45.648;9.004;2023-01-24T05:33:33;100131.03;;;4.38;59.38
59063;BME280;44851;45.648;9.004;2023-01-24T05:36:01;100126.13;;;4.50;58.67
59063;BME280;44851;45.648;9.004;2023-01-24T05:38:26;100130.41;;;4.32;59.52
59063;BME280;44851;45.648;9.004;2023-01-24T05:40:52;100129.13;;;4.41;59.32
59063;BME280;44851;45.648;9.004;2023-01-24T05:43:18;100135.50;;;4.34;59.33
59063;BME280;44851;45.648;9.004;2023-01-24T05:45:43;100133.84;;;4.33;59.54
59063;BME280;44851;45.648;9.004;2023-01-24T05:48:09;100140.56;;;4.36;59.67
59063;BME280;44851;45.648;9.004;2023-01-24T05:50:35;100143.09;;;4.37;59.66
59063;BME280;44851;45.648;9.004;2023-01-24T05:53:02;100145.56;;;4.21;60.02
59063;BME280;44851;45.648;9.004;2023-01-24T05:55:27;100147.66;;;4.32;60.03
59063;BME280;44851;45.648;9.004;2023-01-24T05:57:53;100154.75;;;4.27;59.88
59063;BME280;44851;45.648;9.004;2023-01-24T06:00:18;100154.75;;;4.27;59.95
59063;BME280;44851;45.648;9.004;2023-01-24T06:02:44;100164.94;;;4.30;59.93
59063;BME280;44851;45.648;9.004;2023-01-24T06:05:09;100154.75;;;4.27;59.70
59063;BME280;44851;45.648;9.004;2023-01-24T06:07:35;100158.09;;;4.29;59.70
59063;BME280;44851;45.648;9.004;2023-01-24T06:10:00;100154.88;;;4.24;59.16
59063;BME280;44851;45.648;9.004;2023-01-24T06:12:26;100159.00;;;4.28;59.59
59063;BME280;44851;45.648;9.004;2023-01-24T06:14:51;100163.13;;;4.32;59.87
59063;BME280;44851;45.648;9.004;2023-01-24T06:17:16;100156.84;;;4.19;59.31
59063;BME280;44851;45.648;9.004;2023-01-24T06:19:42;100171.75;;;4.31;58.90
59063;BME280;44851;45.648;9.004;2023-01-24T06:22:36;100168.72;;;4.23;58.24
59063;BME280;44851;45.648;9.004;2023-01-24T06:25:07;100169.25;;;4.29;59.89
59063;BME280;44851;45.648;9.004;2023-01-24T06:27:38;100168.72;;;4.23;60.23
59063;BME280;44851;45.648;9.004;2023-01-24T06:30:04;100182.88;;;4.33;59.10
59063;BME280;44851;45.648;9.004;2023-01-24T06:32:35;100168.22;;;4.33;59.36
59063;BME280;44851;45.648;9.004;2023-01-24T06:37:50;100174.69;;;4.23;58.70
59063;BME280;44851;45.648;9.004;2023-01-24T06:40:21;100171.00;;;4.29;59.68
59063;BME280;44851;45.648;9.004;2023-01-24T06:42:51;100165.09;;;4.27;60.07
59063;BME280;44851;45.648;9.004;2023-01-24T06:45:17;100174.69;;;4.23;60.45
59063;BME280;44851;45.648;9.004;2023-01-24T06:47:43;100175.25;;;4.30;59.86
59063;BME280;44851;45.648;9.004;2023-01-24T06:50:17;100187.00;;;4.37;59.01
59063;BME280;44851;45.648;9.004;2023-01-24T06:52:47;100182.09;;;4.31;59.86
59063;BME280;44851;45.648;9.004;2023-01-24T06:55:13;100188.81;;;4.16;60.71
59063;BME280;44851;45.648;9.004;2023-01-24T06:57:39;100190.25;;;4.22;61.09
59063;BME280;44851;45.648;9.004;2023-01-24T07:00:05;100192.69;;;4.25;60.68
59063;BME280;44851;45.648;9.004;2023-01-24T07:02:31;100198.75;;;4.24;60.97
59063;BME280;44851;45.648;9.004;2023-01-24T07:04:56;100196.72;;;4.30;61.51
59063;BME280;44851;45.648;9.004;2023-01-24T07:07:22;100201.00;;;4.13;61.48
59063;BME280;44851;45.648;9.004;2023-01-24T07:09:47;100205.94;;;4.17;62.04
59063;BME280;44851;45.648;9.004;2023-01-24T07:12:13;100208.44;;;4.19;61.74
59063;BME280;44851;45.648;9.004;2023-01-24T07:14:38;100203.41;;;4.16;61.66
59063;BME280;44851;45.648;9.004;2023-01-24T07:17:04;100213.13;;;4.11;61.81
59063;BME280;44851;45.648;9.004;2023-01-24T07:19:29;100217.38;;;4.12;61.80
59063;BME280;44851;45.648;9.004;2023-01-24T07:21:55;100223.22;;;4.15;62.41
59063;BME280;44851;45.648;9.004;2023-01-24T07:24:24;100227.72;;;4.12;62.86
59063;BME280;44851;45.648;9.004;2023-01-24T07:26:51;100222.66;;;4.09;62.29
59063;BME280;44851;45.648;9.004;2023-01-24T07:29:20;100229.50;;;4.10;62.67
59063;BME280;44851;45.648;9.004;2023-01-24T07:31:47;100242.19;;;4.14;62.48
59063;BME280;44851;45.648;9.004;2023-01-24T07:34:16;100239.41;;;4.19;62.70
59063;BME280;44851;45.648;9.004;2023-01-24T07:36:42;100236.13;;;4.15;62.97
59063;BME280;44851;45.648;9.004;2023-01-24T07:39:08;100233.50;;;4.17;63.07
59063;BME280;44851;45.648;9.004;2023-01-24T07:41:35;100237.94;;;4.13;62.98
59063;BME280;44851;45.648;9.004;2023-01-24T07:44:00;100244.56;;;4.19;63.02
59063;BME280;44851;45.648;9.004;2023-01-24T07:46:32;100243.63;;;4.21;63.54
59063;BME280;44851;45.648;9.004;2023-01-24T07:48:58;100237.47;;;4.24;63.22
59063;BME280;44851;45.648;9.004;2023-01-24T07:51:24;100232.19;;;4.27;63.61
59063;BME280;44851;45.648;9.004;2023-01-24T07:53:49;100239.44;;;4.38;63.98
59063;BME280;44851;45.648;9.004;2023-01-24T07:56:14;100235.38;;;4.51;62.16
59063;BME280;44851;45.648;9.004;2023-01-24T07:58:42;100234.41;;;4.53;62.76
59063;BME280;44851;45.648;9.004;2023-01-24T08:01:08;100235.78;;;4.61;62.54
59063;BME280;44851;45.648;9.004;2023-01-24T08:03:34;100235.94;;;4.57;63.12
59063;BME280;44851;45.648;9.004;2023-01-24T08:05:59;100233.97;;;4.63;63.70
59063;BME280;44851;45.648;9.004;2023-01-24T08:08:25;100240.25;;;4.76;62.59
59063;BME280;44851;45.648;9.004;2023-01-24T08:10:50;100242.06;;;4.74;63.34
59063;BME280;44851;45.648;9.004;2023-01-24T08:13:16;100239.13;;;4.81;62.86
59063;BME280;44851;45.648;9.004;2023-01-24T08:15:41;100244.53;;;4.94;63.03
59063;BME280;44851;45.648;9.004;2023-01-24T08:18:06;100248.03;;;4.93;63.33
59063;BME280;44851;45.648;9.004;2023-01-24T08:20:32;100251.78;;;5.05;61.65
59063;BME280;44851;45.648;9.004;2023-01-24T08:22:57;100248.34;;;5.04;61.62
59063;BME280;44851;45.648;9.004;2023-01-24T08:25:24;100255.50;;;5.17;60.53
59063;BME280;44851;45.648;9.004;2023-01-24T08:27:50;100250.25;;;5.01;61.55
59063;BME280;44851;45.648;9.004;2023-01-24T08:30:16;100252.78;;;5.02;60.54
59063;BME280;44851;45.648;9.004;2023-01-24T08:32:41;100257.47;;;5.11;60.40
59063;BME280;44851;45.648;9.004;2023-01-24T08:35:07;100261.06;;;5.09;60.08
59063;BME280;44851;45.648;9.004;2023-01-24T08:37:33;100270.25;;;5.15;60.12
59063;BME280;44851;45.648;9.004;2023-01-24T08:39:58;100268.31;;;5.37;59.55
59063;BME280;44851;45.648;9.004;2023-01-24T08:42:23;100275.53;;;5.30;60.03
59063;BME280;44851;45.648;9.004;2023-01-24T08:44:49;100268.31;;;5.37;60.37
59063;BME280;44851;45.648;9.004;2023-01-24T08:47:15;100272.66;;;5.36;59.70
59063;BME280;44851;45.648;9.004;2023-01-24T08:49:40;100274.25;;;5.56;60.33
59063;BME280;44851;45.648;9.004;2023-01-24T08:52:05;100281.03;;;5.76;60.56
59063;BME280;44851;45.648;9.004;2023-01-24T08:54:32;100290.16;;;6.01;58.55
59063;BME280;44851;45.648;9.004;2023-01-24T08:56:58;100289.53;;;6.29;58.61
59063;BME280;44851;45.648;9.004;2023-01-24T08:59:23;100293.09;;;6.59;57.38
59063;BME280;44851;45.648;9.004;2023-01-24T09:01:49;100292.78;;;6.97;56.80
59063;BME280;44851;45.648;9.004;2023-01-24T09:04:14;100295.97;;;7.48;55.14
59063;BME280;44851;45.648;9.004;2023-01-24T09:06:40;100299.91;;;7.85;53.23
59063;BME280;44851;45.648;9.004;2023-01-24T09:09:05;100301.81;;;8.26;54.34
59063;BME280;44851;45.648;9.004;2023-01-24T09:11:31;100303.25;;;8.02;52.25
59063;BME280;44851;45.648;9.004;2023-01-24T09:13:57;100309.38;;;7.70;55.16
59063;BME280;44851;45.648;9.004;2023-01-24T09:16:23;100311.19;;;7.54;57.79
59063;BME280;44851;45.648;9.004;2023-01-24T09:18:49;100316.66;;;7.34;52.88
59063;BME280;44851;45.648;9.004;2023-01-24T09:21:16;100313.91;;;7.37;57.34
59063;BME280;44851;45.648;9.004;2023-01-24T09:23:42;100317.81;;;8.04;54.67
59063;BME280;44851;45.648;9.004;2023-01-24T09:26:07;100312.84;;;8.58;54.25
59063;BME280;44851;45.648;9.004;2023-01-24T09:28:33;100310.72;;;8.92;51.51
59063;BME280;44851;45.648;9.004;2023-01-24T09:30:59;100311.56;;;9.34;53.31
59063;BME280;44851;45.648;9.004;2023-01-24T09:33:24;100316.84;;;9.59;49.53
59063;BME280;44851;45.648;9.004;2023-01-24T09:35:52;100311.47;;;9.88;47.87
59063;BME280;44851;45.648;9.004;2023-01-24T09:38:18;100310.00;;;10.09;46.72
59063;BME280;44851;45.648;9.004;2023-01-24T09:40:46;100311.25;;;10.16;46.50
59063;BME280;44851;45.648;9.004;2023-01-24T09:46:32;100307.97;;;10.64;47.03
59063;BME280;44851;45.648;9.004;2023-01-24T09:51:46;100300.75;;;10.93;47.88
59063;BME280;44851;45.648;9.004;2023-01-24T09:54:21;100298.19;;;11.04;45.19
59063;BME280;44851;45.648;9.004;2023-01-24T09:56:51;100295.34;;;11.31;46.22
59063;BME280;44851;45.648;9.004;2023-01-24T09:59:42;100297.47;;;11.26;42.55
59063;BME280;44851;45.648;9.004;2023-01-24T10:02:15;100301.56;;;11.41;43.11
59063;BME280;44851;45.648;9.004;2023-01-24T10:04:42;100299.81;;;11.53;43.49
59063;BME280;44851;45.648;9.004;2023-01-24T10:07:25;100304.59;;;11.59;43.79
59063;BME280;44851;45.648;9.004;2023-01-24T10:18:46;100316.59;;;10.90;46.10
59063;BME280;44851;45.648;9.004;2023-01-24T10:24:01;100312.00;;;10.31;45.99
59063;BME280;44851;45.648;9.004;2023-01-24T10:26:41;100311.75;;;9.96;46.97
59063;BME280;44851;45.648;9.004;2023-01-24T10:29:20;100312.81;;;9.80;47.13
59063;BME280;44851;45.648;9.004;2023-01-24T10:32:12;100319.03;;;9.78;47.65
59063;BME280;44851;45.648;9.004;2023-01-24T10:34:42;100311.66;;;9.72;48.27
59063;BME280;44851;45.648;9.004;2023-01-24T10:39:34;100308.50;;;9.54;49.84
59063;BME280;44851;45.648;9.004;2023-01-24T10:42:00;100309.41;;;9.53;49.15
59063;BME280;44851;45.648;9.004;2023-01-24T10:44:30;100309.22;;;9.56;49.36
59063;BME280;44851;45.648;9.004;2023-01-24T10:49:53;100304.00;;;9.56;50.00
59063;BME280;44851;45.648;9.004;2023-01-24T10:52:22;100300.69;;;9.54;50.96
59063;BME280;44851;45.648;9.004;2023-01-24T10:54:55;100303.28;;;9.54;49.67
59063;BME280;44851;45.648;9.004;2023-01-24T10:57:39;100299.00;;;9.53;50.17
59063;BME280;44851;45.648;9.004;2023-01-24T11:02:41;100302.09;;;10.23;49.66
59063;BME280;44851;45.648;9.004;2023-01-24T11:05:13;100288.88;;;10.63;48.83
59063;BME280;44851;45.648;9.004;2023-01-24T11:07:45;100286.69;;;11.06;46.89
59063;BME280;44851;45.648;9.004;2023-01-24T11:10:25;100287.72;;;11.52;46.10
59063;BME280;44851;45.648;9.004;2023-01-24T11:12:58;100288.31;;;11.55;45.31
59063;BME280;44851;45.648;9.004;2023-01-24T11:15:33;100285.69;;;11.90;46.14
59063;BME280;44851;45.648;9.004;2023-01-24T11:18:06;100278.97;;;11.99;44.63
59063;BME280;44851;45.648;9.004;2023-01-24T11:20:34;100272.34;;;11.71;44.79
59063;BME280;44851;45.648;9.004;2023-01-24T11:23:26;100272.78;;;12.11;43.90
59063;BME280;44851;45.648;9.004;2023-01-24T11:25:58;100270.41;;;12.20;44.25
59063;BME280;44851;45.648;9.004;2023-01-24T11:28:36;100266.50;;;12.36;44.10
59063;BME280;44851;45.648;9.004;2023-01-24T11:31:15;100260.50;;;12.57;43.52
59063;BME280;44851;45.648;9.004;2023-01-24T11:39:40;100254.75;;;12.85;43.29
59063;BME280;44851;45.648;9.004;2023-01-24T11:42:34;100249.59;;;12.63;42.69
59063;BME280;44851;45.648;9.004;2023-01-24T11:48:18;100243.53;;;11.95;42.87
59063;BME280;44851;45.648;9.004;2023-01-24T12:02:27;100224.59;;;12.70;43.48
59063;BME280;44851;45.648;9.004;2023-01-24T12:21:48;100201.56;;;13.28;42.21
59063;BME280;44851;45.648;9.004;2023-01-24T12:24:22;100205.91;;;13.60;41.38
59063;BME280;44851;45.648;9.004;2023-01-24T12:27:01;100196.50;;;13.36;40.35
59063;BME280;44851;45.648;9.004;2023-01-24T12:29:44;100186.22;;;13.44;39.74
59063;BME280;44851;45.648;9.004;2023-01-24T12:32:25;100186.91;;;13.46;40.53
59063;BME280;44851;45.648;9.004;2023-01-24T12:35:14;100182.97;;;13.31;40.20
59063;BME280;44851;45.648;9.004;2023-01-24T12:38:01;100182.88;;;13.63;41.37
59063;BME280;44851;45.648;9.004;2023-01-24T12:43:24;100179.50;;;13.52;40.48
59063;BME280;44851;45.648;9.004;2023-01-24T12:46:30;100185.19;;;13.36;42.02
59063;BME280;44851;45.648;9.004;2023-01-24T12:52:00;100185.56;;;12.78;42.03
59063;BME280;44851;45.648;9.004;2023-01-24T12:54:44;100183.09;;;12.22;42.71
59063;BME280;44851;45.648;9.004;2023-01-24T12:57:22;100181.88;;;11.70;43.59
59063;BME280;44851;45.648;9.004;2023-01-24T12:59:49;100176.91;;;11.89;43.86
59063;BME280;44851;45.648;9.004;2023-01-24T13:02:41;100176.44;;;11.73;44.06
59063;BME280;44851;45.648;9.004;2023-01-24T13:10:52;100166.59;;;12.65;42.91
59063;BME280;44851;45.648;9.004;2023-01-24T13:13:27;100159.75;;;12.53;42.41
59063;BME280;44851;45.648;9.004;2023-01-24T13:27:19;100158.31;;;12.81;42.77
59063;BME280;44851;45.648;9.004;2023-01-24T13:32:35;100154.63;;;12.83;42.98
59063;BME280;44851;45.648;9.004;2023-01-24T13:35:24;100154.09;;;12.68;42.69
59063;BME280;44851;45.648;9.004;2023-01-24T13:37:59;100152.31;;;12.69;43.01
59063;BME280;44851;45.648;9.004;2023-01-24T13:40:28;100154.00;;;12.59;43.64
59063;BME280;44851;45.648;9.004;2023-01-24T13:42:56;100151.09;;;12.73;43.01
59063;BME280;44851;45.648;9.004;2023-01-24T13:47:53;100154.50;;;12.53;43.03
59063;BME280;44851;45.648;9.004;2023-01-24T13:50:22;100154.00;;;12.59;43.49
59063;BME280;44851;45.648;9.004;2023-01-24T13:53:00;100155.91;;;12.57;43.84
59063;BME280;44851;45.648;9.004;2023-01-24T13:55:59;100158.28;;;12.60;43.67
59063;BME280;44851;45.648;9.004;2023-01-24T13:58:25;100172.09;;;12.51;44.14
59063;BME280;44851;45.648;9.004;2023-01-24T14:00:52;100166.03;;;12.50;43.99
59063;BME280;44851;45.648;9.004;2023-01-24T14:05:51;100167.91;;;12.59;43.77
59063;BME280;44851;45.648;9.004;2023-01-24T14:21:20;100166.69;;;12.09;43.70
59063;BME280;44851;45.648;9.004;2023-01-24T14:23:56;100167.63;;;11.97;43.80
59063;BME280;44851;45.648;9.004;2023-01-24T14:26:24;100159.66;;;11.87;44.50
59063;BME280;44851;45.648;9.004;2023-01-24T14:28:55;100159.94;;;11.84;44.49
59063;BME280;44851;45.648;9.004;2023-01-24T14:31:28;100155.50;;;11.51;44.48
59063;BME280;44851;45.648;9.004;2023-01-24T14:36:33;100164.25;;;11.38;45.55
59063;BME280;44851;45.648;9.004;2023-01-24T14:39:18;100166.53;;;10.97;46.18
59063;BME280;44851;45.648;9.004;2023-01-24T14:41:50;100166.78;;;11.05;46.13
59063;BME280;44851;45.648;9.004;2023-01-24T14:47:00;100165.03;;;11.05;46.66
59063;BME280;44851;45.648;9.004;2023-01-24T14:49:33;100165.69;;;10.96;46.99
59063;BME280;44851;45.648;9.004;2023-01-24T14:52:00;100172.47;;;10.99;47.60
59063;BME280;44851;45.648;9.004;2023-01-24T14:54:26;100173.63;;;10.95;47.54
59063;BME280;44851;45.648;9.004;2023-01-24T14:56:52;100174.81;;;10.91;47.90
59063;BME280;44851;45.648;9.004;2023-01-24T14:59:19;100175.97;;;10.86;47.17
59063;BME280;44851;45.648;9.004;2023-01-24T15:01:48;100173.94;;;10.79;47.70
59063;BME280;44851;45.648;9.004;2023-01-24T15:06:45;100175.84;;;10.64;48.17
59063;BME280;44851;45.648;9.004;2023-01-24T15:09:12;100168.56;;;10.56;48.10
59063;BME280;44851;45.648;9.004;2023-01-24T15:11:46;100176.09;;;10.48;48.20
59063;BME280;44851;45.648;9.004;2023-01-24T15:14:18;100174.25;;;10.50;48.17
59063;BME280;44851;45.648;9.004;2023-01-24T15:16:51;100167.25;;;10.51;48.08